createdAt,value
2019-02-27T00:00:25.548Z,13.40
2019-02-27T00:01:25.539Z,15.20
2019-02-27T00:02:25.520Z,15.70
2019-02-27T00:03:28.904Z,15.80
2019-02-27T00:04:25.521Z,14.80
2019-02-27T00:05:25.528Z,13.10
2019-02-27T00:06:25.483Z,13.70
2019-02-27T00:07:25.475Z,13.30
2019-02-27T00:08:26.955Z,13.30
2019-02-27T00:09:25.469Z,15.20
2019-02-27T00:10:25.439Z,14.50
2019-02-27T00:11:25.422Z,13.80
2019-02-27T00:12:25.427Z,13.00
2019-02-27T00:13:25.478Z,13.70
2019-02-27T00:14:25.393Z,13.20
2019-02-27T00:15:25.381Z,13.10
2019-02-27T00:16:25.373Z,14.50
2019-02-27T00:17:25.398Z,13.00
2019-02-27T00:18:25.351Z,13.10
2019-02-27T00:19:25.339Z,13.00
2019-02-27T00:20:25.334Z,15.20
2019-02-27T00:21:25.342Z,11.90
2019-02-27T00:22:25.299Z,12.90
2019-02-27T00:23:25.296Z,14.30
2019-02-27T00:24:27.042Z,13.50
2019-02-27T00:25:25.271Z,12.40
2019-02-27T00:26:25.256Z,12.50
2019-02-27T00:27:25.246Z,12.30
2019-02-27T00:28:25.247Z,11.90
2019-02-27T00:29:28.798Z,11.70
2019-02-27T00:30:25.218Z,11.60
2019-02-27T00:31:25.207Z,12.30
2019-02-27T00:32:25.191Z,12.40
2019-02-27T00:33:27.011Z,12.00
2019-02-27T00:34:25.172Z,13.40
2019-02-27T00:35:25.177Z,12.30
2019-02-27T00:36:25.174Z,11.30
2019-02-27T00:37:25.146Z,13.00
2019-02-27T00:38:25.777Z,11.90
2019-02-27T00:39:25.114Z,11.80
2019-02-27T00:40:25.107Z,12.40
2019-02-27T00:41:25.091Z,12.80
2019-02-27T00:42:33.345Z,15.10
2019-02-27T00:43:28.412Z,12.50
2019-02-27T00:44:25.145Z,11.10
2019-02-27T00:45:25.048Z,13.20
2019-02-27T00:46:25.039Z,12.50
2019-02-27T00:47:25.029Z,11.40
2019-02-27T00:48:26.156Z,12.30
2019-02-27T00:49:25.004Z,12.10
2019-02-27T00:50:24.995Z,11.20
2019-02-27T00:51:24.983Z,12.80
2019-02-27T00:52:24.988Z,11.60
2019-02-27T00:53:25.165Z,13.40
2019-02-27T00:54:24.977Z,11.20
2019-02-27T00:55:24.942Z,12.40
2019-02-27T00:56:24.934Z,12.00
2019-02-27T00:57:24.922Z,11.40
2019-02-27T00:58:27.073Z,11.50
2019-02-27T00:59:24.906Z,11.40
2019-02-27T01:00:24.959Z,10.70
2019-02-27T01:01:24.874Z,11.40
2019-02-27T01:02:24.868Z,11.50
2019-02-27T01:03:26.270Z,11.60
2019-02-27T01:04:24.848Z,11.30
2019-02-27T01:05:24.851Z,11.40
2019-02-27T01:06:24.827Z,10.50
2019-02-27T01:07:24.810Z,11.00
2019-02-27T01:08:25.079Z,10.90
2019-02-27T01:09:24.799Z,11.10
2019-02-27T01:10:24.793Z,12.80
2019-02-27T01:11:24.814Z,11.30
2019-02-27T01:12:25.256Z,11.30
2019-02-27T01:13:24.747Z,13.20
2019-02-27T01:14:24.737Z,11.20
2019-02-27T01:15:24.736Z,11.60
2019-02-27T01:16:24.716Z,11.20
2019-02-27T01:17:24.720Z,12.10
2019-02-27T01:18:24.694Z,10.80
2019-02-27T01:19:24.684Z,11.50
2019-02-27T01:20:24.676Z,12.50
2019-02-27T01:21:24.662Z,11.30
2019-02-27T01:22:24.670Z,10.30
2019-02-27T01:23:24.641Z,10.90
2019-02-27T01:24:24.630Z,10.40
2019-02-27T01:25:24.620Z,10.80
2019-02-27T01:26:24.610Z,11.30
2019-02-27T01:27:24.599Z,12.30
2019-02-27T01:28:24.595Z,12.80
2019-02-27T01:29:24.574Z,11.80
2019-02-27T01:30:24.930Z,12.60
2019-02-27T01:31:24.567Z,11.10
2019-02-27T01:32:24.618Z,12.00
2019-02-27T01:33:24.538Z,12.80
2019-02-27T01:34:24.528Z,15.00
2019-02-27T01:35:24.578Z,43.50
2019-02-27T01:36:25.287Z,57.60
2019-02-27T01:37:24.489Z,93.30
2019-02-27T01:38:24.497Z,103.70
2019-02-27T01:39:24.474Z,86.40
2019-02-27T01:40:24.472Z,53.90
2019-02-27T01:41:25.134Z,82.10
2019-02-27T01:42:24.436Z,69.80
2019-02-27T01:43:24.424Z,70.00
2019-02-27T01:44:24.424Z,68.60
2019-02-27T01:45:24.419Z,56.70
2019-02-27T01:46:27.364Z,61.60
2019-02-27T01:47:24.505Z,62.70
2019-02-27T01:48:24.371Z,61.60
2019-02-27T01:49:24.367Z,47.90
2019-02-27T01:50:24.357Z,60.40
2019-02-27T01:51:25.718Z,52.00
2019-02-27T01:52:24.332Z,51.40
2019-02-27T01:53:24.329Z,40.70
2019-02-27T01:54:24.307Z,55.80
2019-02-27T01:55:24.301Z,49.00
2019-02-27T01:56:24.316Z,50.10
2019-02-27T01:57:24.281Z,42.70
2019-02-27T01:58:24.263Z,51.10
2019-02-27T01:59:24.254Z,42.40
2019-02-27T02:00:24.248Z,38.20
2019-02-27T02:01:24.238Z,38.20
2019-02-27T02:02:24.235Z,45.70
2019-02-27T02:03:24.209Z,38.20
2019-02-27T02:04:24.200Z,41.20
2019-02-27T02:05:27.212Z,39.70
2019-02-27T02:06:24.187Z,35.50
2019-02-27T02:07:24.167Z,36.90
2019-02-27T02:08:24.163Z,39.60
2019-02-27T02:09:24.145Z,38.90
2019-02-27T02:10:27.983Z,39.90
2019-02-27T02:11:24.126Z,38.90
2019-02-27T02:12:24.117Z,35.50
2019-02-27T02:13:24.108Z,36.40
2019-02-27T02:14:24.092Z,32.90
2019-02-27T02:15:27.122Z,36.00
2019-02-27T02:16:24.072Z,34.40
2019-02-27T02:17:24.057Z,38.20
2019-02-27T02:18:24.048Z,34.90
2019-02-27T02:19:24.037Z,37.60
2019-02-27T02:20:27.041Z,32.10
2019-02-27T02:21:24.015Z,29.70
2019-02-27T02:22:24.008Z,29.90
2019-02-27T02:23:23.996Z,31.40
2019-02-27T02:24:23.982Z,32.90
2019-02-27T02:25:25.083Z,30.70
2019-02-27T02:26:23.960Z,33.20
2019-02-27T02:27:23.966Z,28.60
2019-02-27T02:28:23.938Z,29.10
2019-02-27T02:29:23.941Z,30.00
2019-02-27T02:30:29.426Z,27.40
2019-02-27T02:31:24.906Z,29.20
2019-02-27T02:32:23.900Z,28.30
2019-02-27T02:33:29.095Z,24.80
2019-02-27T02:34:24.890Z,33.00
2019-02-27T02:35:23.865Z,28.30
2019-02-27T02:36:26.353Z,24.10
2019-02-27T02:37:23.842Z,30.10
2019-02-27T02:38:23.833Z,30.40
2019-02-27T02:39:23.819Z,29.50
2019-02-27T02:40:23.819Z,26.70
2019-02-27T02:41:23.799Z,25.10
2019-02-27T02:42:24.580Z,26.00
2019-02-27T02:43:23.774Z,25.40
2019-02-27T02:44:23.764Z,31.40
2019-02-27T02:45:23.753Z,28.60
2019-02-27T02:46:23.747Z,31.20
2019-02-27T02:47:23.742Z,30.80
2019-02-27T02:48:23.723Z,23.90
2019-02-27T02:49:23.708Z,25.40
2019-02-27T02:50:23.701Z,28.60
2019-02-27T02:51:28.615Z,24.50
2019-02-27T02:52:24.678Z,24.60
2019-02-27T02:53:25.373Z,28.30
2019-02-27T02:54:23.661Z,27.70
2019-02-27T02:55:23.644Z,25.80
2019-02-27T02:56:24.757Z,27.60
2019-02-27T02:57:23.622Z,26.00
2019-02-27T02:58:23.620Z,29.60
2019-02-27T02:59:24.809Z,26.50
2019-02-27T03:00:23.596Z,24.20
2019-02-27T03:01:23.579Z,24.60
2019-02-27T03:02:24.640Z,30.60
2019-02-27T03:03:23.558Z,22.90
2019-02-27T03:04:23.550Z,24.90
2019-02-27T03:05:24.400Z,23.60
2019-02-27T03:06:23.525Z,23.20
2019-02-27T03:07:23.517Z,25.70
2019-02-27T03:08:23.504Z,23.30
2019-02-27T03:09:23.495Z,24.80
2019-02-27T03:10:23.486Z,24.20
2019-02-27T03:11:23.472Z,22.40
2019-02-27T03:12:29.898Z,24.10
2019-02-27T03:13:24.460Z,26.30
2019-02-27T03:14:23.439Z,21.80
2019-02-27T03:15:28.502Z,23.10
2019-02-27T03:16:24.417Z,19.90
2019-02-27T03:17:23.410Z,24.90
2019-02-27T03:18:26.176Z,23.60
2019-02-27T03:19:24.387Z,23.50
2019-02-27T03:20:23.380Z,22.50
2019-02-27T03:21:27.323Z,23.60
2019-02-27T03:22:24.360Z,22.60
2019-02-27T03:23:23.350Z,20.00
2019-02-27T03:24:27.941Z,18.60
2019-02-27T03:25:24.322Z,24.10
2019-02-27T03:26:23.317Z,21.00
2019-02-27T03:27:29.602Z,22.20
2019-02-27T03:28:24.290Z,24.40
2019-02-27T03:29:23.289Z,26.10
2019-02-27T03:30:33.963Z,22.00
2019-02-27T03:31:24.283Z,20.80
2019-02-27T03:32:23.261Z,21.10
2019-02-27T03:33:26.695Z,23.40
2019-02-27T03:34:23.237Z,21.50
2019-02-27T03:35:27.942Z,22.30
2019-02-27T03:36:24.208Z,22.70
2019-02-27T03:37:23.211Z,24.30
2019-02-27T03:38:24.096Z,18.50
2019-02-27T03:39:23.183Z,19.20
2019-02-27T03:40:23.162Z,21.80
2019-02-27T03:41:23.764Z,21.30
2019-02-27T03:42:23.143Z,23.90
2019-02-27T03:43:23.148Z,20.60
2019-02-27T03:44:23.124Z,21.10
2019-02-27T03:45:23.116Z,19.20
2019-02-27T03:46:23.107Z,19.20
2019-02-27T03:47:23.110Z,20.80
2019-02-27T03:48:27.463Z,19.50
2019-02-27T03:49:24.071Z,19.20
2019-02-27T03:50:23.059Z,20.10
2019-02-27T03:51:24.643Z,21.70
2019-02-27T03:52:23.036Z,23.30
2019-02-27T03:53:23.023Z,18.40
2019-02-27T03:54:23.014Z,20.60
2019-02-27T03:55:23.012Z,21.70
2019-02-27T03:56:23.008Z,18.00
2019-02-27T03:57:22.990Z,17.90
2019-02-27T03:58:22.975Z,19.80
2019-02-27T03:59:22.961Z,21.90
2019-02-27T04:00:22.955Z,18.10
2019-02-27T04:01:22.943Z,17.80
2019-02-27T04:02:22.941Z,20.90
2019-02-27T04:03:22.916Z,19.30
2019-02-27T04:04:22.909Z,24.20
2019-02-27T04:05:22.904Z,21.70
2019-02-27T04:06:22.890Z,24.60
2019-02-27T04:07:22.883Z,29.40
2019-02-27T04:08:22.877Z,24.20
2019-02-27T04:09:22.855Z,25.90
2019-02-27T04:10:22.846Z,20.40
2019-02-27T04:11:22.834Z,20.40
2019-02-27T04:12:22.826Z,24.10
2019-02-27T04:13:26.805Z,26.10
2019-02-27T04:14:22.834Z,23.30
2019-02-27T04:15:22.797Z,25.00
2019-02-27T04:16:28.853Z,19.90
2019-02-27T04:17:23.772Z,22.20
2019-02-27T04:18:27.516Z,20.60
2019-02-27T04:19:23.746Z,20.90
2019-02-27T04:20:22.742Z,26.40
2019-02-27T04:21:25.360Z,18.90
2019-02-27T04:22:22.717Z,22.30
2019-02-27T04:23:22.719Z,21.20
2019-02-27T04:24:23.239Z,23.00
2019-02-27T04:25:22.706Z,18.20
2019-02-27T04:26:22.675Z,18.10
2019-02-27T04:27:22.667Z,20.90
2019-02-27T04:28:22.653Z,24.00
2019-02-27T04:29:22.658Z,19.80
2019-02-27T04:30:22.639Z,20.50
2019-02-27T04:31:22.656Z,19.50
2019-02-27T04:32:22.627Z,20.70
2019-02-27T04:33:23.195Z,21.90
2019-02-27T04:34:22.594Z,18.40
2019-02-27T04:35:22.579Z,21.60
2019-02-27T04:36:22.572Z,20.60
2019-02-27T04:37:22.561Z,20.00
2019-02-27T04:38:25.039Z,19.80
2019-02-27T04:39:22.538Z,19.10
2019-02-27T04:40:22.526Z,17.30
2019-02-27T04:41:22.515Z,19.00
2019-02-27T04:42:22.945Z,20.40
2019-02-27T04:43:22.496Z,17.10
2019-02-27T04:44:22.487Z,20.60
2019-02-27T04:45:22.478Z,22.70
2019-02-27T04:46:22.483Z,17.60
2019-02-27T04:47:22.454Z,20.00
2019-02-27T04:48:22.456Z,14.90
2019-02-27T04:49:22.436Z,19.50
2019-02-27T04:50:22.444Z,16.70
2019-02-27T04:51:22.420Z,19.00
2019-02-27T04:52:24.362Z,17.60
2019-02-27T04:53:22.396Z,15.40
2019-02-27T04:54:22.405Z,19.10
2019-02-27T04:55:22.374Z,15.60
2019-02-27T04:56:23.391Z,20.50
2019-02-27T04:57:22.359Z,17.60
2019-02-27T04:58:22.336Z,18.60
2019-02-27T04:59:22.330Z,15.20
2019-02-27T05:00:26.038Z,16.70
2019-02-27T05:01:22.305Z,18.20
2019-02-27T05:02:22.294Z,15.50
2019-02-27T05:03:22.282Z,17.70
2019-02-27T05:04:22.290Z,15.50
2019-02-27T05:05:22.264Z,15.40
2019-02-27T05:06:22.259Z,14.50
2019-02-27T05:07:22.239Z,17.10
2019-02-27T05:08:22.229Z,13.40
2019-02-27T05:09:22.217Z,16.90
2019-02-27T05:10:22.207Z,14.70
2019-02-27T05:11:22.203Z,15.40
2019-02-27T05:12:22.187Z,15.30
2019-02-27T05:13:22.173Z,15.70
2019-02-27T05:14:22.162Z,13.20
2019-02-27T05:15:22.151Z,16.20
2019-02-27T05:16:22.150Z,15.30
2019-02-27T05:17:22.138Z,14.20
2019-02-27T05:18:22.119Z,14.40
2019-02-27T05:19:22.110Z,14.70
2019-02-27T05:20:22.102Z,16.00
2019-02-27T05:21:22.087Z,17.50
2019-02-27T05:22:26.585Z,13.90
2019-02-27T05:23:22.065Z,17.50
2019-02-27T05:24:22.058Z,14.30
2019-02-27T05:25:22.047Z,13.90
2019-02-27T05:26:22.040Z,15.30
2019-02-27T05:27:22.022Z,16.20
2019-02-27T05:28:22.017Z,13.40
2019-02-27T05:29:22.026Z,14.90
2019-02-27T05:30:21.991Z,13.20
2019-02-27T05:31:21.986Z,14.30
2019-02-27T05:32:21.978Z,16.80
2019-02-27T05:33:21.966Z,15.60
2019-02-27T05:34:21.973Z,14.10
2019-02-27T05:35:24.267Z,15.10
2019-02-27T05:36:21.929Z,16.00
2019-02-27T05:37:21.916Z,17.30
2019-02-27T05:38:21.906Z,14.40
2019-02-27T05:39:21.904Z,15.70
2019-02-27T05:40:23.141Z,13.70
2019-02-27T05:41:21.879Z,11.40
2019-02-27T05:42:21.862Z,16.10
2019-02-27T05:43:21.856Z,13.00
2019-02-27T05:44:22.372Z,14.30
2019-02-27T05:45:21.841Z,16.20
2019-02-27T05:46:21.822Z,14.70
2019-02-27T05:47:21.809Z,12.60
2019-02-27T05:48:21.806Z,18.20
2019-02-27T05:49:21.805Z,16.90
2019-02-27T05:50:21.786Z,13.00
2019-02-27T05:51:21.777Z,13.30
2019-02-27T05:52:21.756Z,15.90
2019-02-27T05:53:22.377Z,14.00
2019-02-27T05:54:21.735Z,14.00
2019-02-27T05:55:21.740Z,14.20
2019-02-27T05:56:21.723Z,17.80
2019-02-27T05:57:23.337Z,13.80
2019-02-27T05:58:23.093Z,10.90
2019-02-27T05:59:21.685Z,15.30
2019-02-27T06:00:21.673Z,14.10
2019-02-27T06:01:21.665Z,14.50
2019-02-27T06:02:21.651Z,17.90
2019-02-27T06:03:21.640Z,13.00
2019-02-27T06:04:24.915Z,14.10
2019-02-27T06:05:21.627Z,14.80
2019-02-27T06:06:21.649Z,14.80
2019-02-27T06:07:21.600Z,16.20
2019-02-27T06:08:21.595Z,13.70
2019-02-27T06:09:21.585Z,13.20
2019-02-27T06:10:23.436Z,14.30
2019-02-27T06:11:21.554Z,15.50
2019-02-27T06:12:21.550Z,12.80
2019-02-27T06:13:21.558Z,14.30
2019-02-27T06:14:22.013Z,14.80
2019-02-27T06:15:21.521Z,13.60
2019-02-27T06:16:21.503Z,14.50
2019-02-27T06:17:21.524Z,14.00
2019-02-27T06:18:23.421Z,10.10
2019-02-27T06:19:21.475Z,12.90
2019-02-27T06:20:21.457Z,16.60
2019-02-27T06:21:21.450Z,17.40
2019-02-27T06:22:21.436Z,16.40
2019-02-27T06:23:21.428Z,14.80
2019-02-27T06:24:21.416Z,11.00
2019-02-27T06:25:23.345Z,12.00
2019-02-27T06:26:21.396Z,12.00
2019-02-27T06:27:21.385Z,12.00
2019-02-27T06:28:21.372Z,14.50
2019-02-27T06:29:23.989Z,12.60
2019-02-27T06:30:21.353Z,13.40
2019-02-27T06:31:21.343Z,11.40
2019-02-27T06:32:21.330Z,12.20
2019-02-27T06:33:21.318Z,13.40
2019-02-27T06:34:22.368Z,15.00
2019-02-27T06:35:21.309Z,10.90
2019-02-27T06:36:21.290Z,10.50
2019-02-27T06:37:21.281Z,11.30
2019-02-27T06:38:25.055Z,11.70
2019-02-27T06:39:21.260Z,13.10
2019-02-27T06:40:21.256Z,12.60
2019-02-27T06:41:21.236Z,12.30
2019-02-27T06:42:21.371Z,12.20
2019-02-27T06:43:21.213Z,10.50
2019-02-27T06:44:21.201Z,12.30
2019-02-27T06:45:21.328Z,11.20
2019-02-27T06:46:21.179Z,12.80
2019-02-27T06:47:21.167Z,14.90
2019-02-27T06:48:21.158Z,10.50
2019-02-27T06:49:21.151Z,11.00
2019-02-27T06:50:25.258Z,9.50
2019-02-27T06:51:21.124Z,10.10
2019-02-27T06:52:21.117Z,11.30
2019-02-27T06:53:21.105Z,10.80
2019-02-27T06:54:21.100Z,11.30
2019-02-27T06:55:21.078Z,10.90
2019-02-27T06:56:21.179Z,13.70
2019-02-27T06:57:21.073Z,9.20
2019-02-27T06:58:21.046Z,13.10
2019-02-27T06:59:24.855Z,9.80
2019-02-27T07:00:21.025Z,10.30
2019-02-27T07:01:21.016Z,13.10
2019-02-27T07:02:21.799Z,13.80
2019-02-27T07:03:20.995Z,12.30
2019-02-27T07:04:20.983Z,14.50
2019-02-27T07:05:20.979Z,14.20
2019-02-27T07:06:21.647Z,9.30
2019-02-27T07:07:20.949Z,12.40
2019-02-27T07:08:20.937Z,10.30
2019-02-27T07:09:20.936Z,11.70
2019-02-27T07:10:21.638Z,12.40
2019-02-27T07:11:20.908Z,12.50
2019-02-27T07:12:21.797Z,11.80
2019-02-27T07:13:21.680Z,10.30
2019-02-27T07:14:20.877Z,13.00
2019-02-27T07:15:20.873Z,10.80
2019-02-27T07:16:22.897Z,11.70
2019-02-27T07:17:20.840Z,10.80
2019-02-27T07:18:20.836Z,12.40
2019-02-27T07:19:20.821Z,12.00
2019-02-27T07:20:24.050Z,11.20
2019-02-27T07:21:20.797Z,10.30
2019-02-27T07:22:20.811Z,11.20
2019-02-27T07:23:23.698Z,11.60
2019-02-27T07:24:20.766Z,11.20
2019-02-27T07:25:20.801Z,11.60
2019-02-27T07:26:20.754Z,12.00
2019-02-27T07:27:20.734Z,9.40
2019-02-27T07:28:20.729Z,10.50
2019-02-27T07:29:21.902Z,10.60
2019-02-27T07:30:23.736Z,12.00
2019-02-27T07:31:20.692Z,9.40
2019-02-27T07:32:20.694Z,10.40
2019-02-27T07:33:20.667Z,11.00
2019-02-27T07:34:20.676Z,12.20
2019-02-27T07:35:25.614Z,10.90
2019-02-27T07:36:21.643Z,11.00
2019-02-27T07:37:20.626Z,15.00
2019-02-27T07:38:21.637Z,13.40
2019-02-27T07:39:20.630Z,14.30
2019-02-27T07:40:20.595Z,12.70
2019-02-27T07:41:21.018Z,11.40
2019-02-27T07:42:20.606Z,11.80
2019-02-27T07:43:20.561Z,11.40
2019-02-27T07:44:20.554Z,9.30
2019-02-27T07:45:22.552Z,11.50
2019-02-27T07:46:22.418Z,13.00
2019-02-27T07:47:20.517Z,11.10
2019-02-27T07:48:20.518Z,10.90
2019-02-27T07:49:20.503Z,16.90
2019-02-27T07:50:20.508Z,13.40
2019-02-27T07:51:22.890Z,11.40
2019-02-27T07:52:20.464Z,16.00
2019-02-27T07:53:20.455Z,14.10
2019-02-27T07:54:20.451Z,14.90
2019-02-27T07:55:22.957Z,11.40
2019-02-27T07:56:20.428Z,13.40
2019-02-27T07:57:20.413Z,13.40
2019-02-27T07:58:20.421Z,10.90
2019-02-27T07:59:20.389Z,16.30
2019-02-27T08:00:20.385Z,14.10
2019-02-27T08:01:20.965Z,11.40
2019-02-27T08:02:20.373Z,13.90
2019-02-27T08:03:20.347Z,10.10
2019-02-27T08:04:22.821Z,12.50
2019-02-27T08:05:20.328Z,12.30
2019-02-27T08:06:20.327Z,13.50
2019-02-27T08:07:20.309Z,12.30
2019-02-27T08:08:23.281Z,12.10
2019-02-27T08:09:20.284Z,9.00
2019-02-27T08:10:20.273Z,10.60
2019-02-27T08:11:20.262Z,10.70
2019-02-27T08:12:20.767Z,13.60
2019-02-27T08:13:20.251Z,11.80
2019-02-27T08:14:20.254Z,12.60
2019-02-27T08:15:20.221Z,9.70
2019-02-27T08:16:20.210Z,13.90
2019-02-27T08:17:20.200Z,10.50
2019-02-27T08:18:29.587Z,9.20
2019-02-27T08:19:21.177Z,9.40
2019-02-27T08:20:21.115Z,9.50
2019-02-27T08:21:20.156Z,13.00
2019-02-27T08:22:20.146Z,9.70
2019-02-27T08:23:20.141Z,9.80
2019-02-27T08:24:20.132Z,10.00
2019-02-27T08:25:20.121Z,9.70
2019-02-27T08:26:20.108Z,11.80
2019-02-27T08:27:20.092Z,9.20
2019-02-27T08:28:20.083Z,9.30
2019-02-27T08:29:20.082Z,11.60
2019-02-27T08:30:20.065Z,9.70
2019-02-27T08:31:20.058Z,10.40
2019-02-27T08:32:20.042Z,10.30
2019-02-27T08:33:20.032Z,10.10
2019-02-27T08:34:20.020Z,9.20
2019-02-27T08:35:20.018Z,10.50
2019-02-27T08:36:20.002Z,11.30
2019-02-27T08:37:20.353Z,10.10
2019-02-27T08:38:20.006Z,10.00
2019-02-27T08:39:19.967Z,9.40
2019-02-27T08:40:24.425Z,13.60
2019-02-27T08:41:20.947Z,9.60
2019-02-27T08:42:19.941Z,9.80
2019-02-27T08:43:19.925Z,8.60
2019-02-27T08:44:19.922Z,9.60
2019-02-27T08:45:20.599Z,11.80
2019-02-27T08:46:19.894Z,9.40
2019-02-27T08:47:19.885Z,9.50
2019-02-27T08:48:19.877Z,9.30
2019-02-27T08:49:24.211Z,9.80
2019-02-27T08:50:20.860Z,10.80
2019-02-27T08:51:19.840Z,10.30
2019-02-27T08:52:19.830Z,9.80
2019-02-27T08:53:19.821Z,8.30
2019-02-27T08:54:19.812Z,10.10
2019-02-27T08:55:22.333Z,9.30
2019-02-27T08:56:19.787Z,9.90
2019-02-27T08:57:19.776Z,9.60
2019-02-27T08:58:19.769Z,9.50
2019-02-27T08:59:19.761Z,11.00
2019-02-27T09:00:19.751Z,9.60
2019-02-27T09:01:21.682Z,8.50
2019-02-27T09:02:19.734Z,10.50
2019-02-27T09:03:20.688Z,9.40
2019-02-27T09:04:19.703Z,8.70
2019-02-27T09:05:20.744Z,8.70
2019-02-27T09:06:19.705Z,7.90
2019-02-27T09:07:19.678Z,11.10
2019-02-27T09:08:19.662Z,8.50
2019-02-27T09:09:19.647Z,8.60
2019-02-27T09:10:19.636Z,7.60
2019-02-27T09:11:19.627Z,8.00
2019-02-27T09:12:19.617Z,8.60
2019-02-27T09:13:19.605Z,8.00
2019-02-27T09:14:19.595Z,9.90
2019-02-27T09:15:19.586Z,8.90
2019-02-27T09:16:19.572Z,9.10
2019-02-27T09:17:19.577Z,9.50
2019-02-27T09:18:19.556Z,8.40
2019-02-27T09:19:20.757Z,8.20
2019-02-27T09:20:20.497Z,8.90
2019-02-27T09:21:19.526Z,9.50
2019-02-27T09:22:19.543Z,8.20
2019-02-27T09:23:19.524Z,8.40
2019-02-27T09:24:19.488Z,8.60
2019-02-27T09:25:23.623Z,9.70
2019-02-27T09:26:20.467Z,11.40
2019-02-27T09:27:19.455Z,7.90
2019-02-27T09:28:19.446Z,7.70
2019-02-27T09:29:19.440Z,7.90
2019-02-27T09:30:19.427Z,8.00
2019-02-27T09:31:19.455Z,7.50
2019-02-27T09:32:20.452Z,8.60
2019-02-27T09:33:20.024Z,8.80
2019-02-27T09:34:19.428Z,8.30
2019-02-27T09:35:19.371Z,8.50
2019-02-27T09:36:19.365Z,8.60
2019-02-27T09:37:19.381Z,8.70
2019-02-27T09:38:24.113Z,11.50
2019-02-27T09:39:22.079Z,11.30
2019-02-27T09:40:19.324Z,13.40
2019-02-27T09:41:19.306Z,9.80
2019-02-27T09:42:19.786Z,8.40
2019-02-27T09:43:19.295Z,11.90
2019-02-27T09:44:19.273Z,12.30
2019-02-27T09:45:19.269Z,14.20
2019-02-27T09:46:20.072Z,15.60
2019-02-27T09:47:19.244Z,12.20
2019-02-27T09:48:19.359Z,14.10
2019-02-27T09:49:19.220Z,13.30
2019-02-27T09:50:19.210Z,11.50
2019-02-27T09:51:22.199Z,10.40
2019-02-27T09:52:19.191Z,12.30
2019-02-27T09:53:19.182Z,16.80
2019-02-27T09:54:19.179Z,12.10
2019-02-27T09:55:20.404Z,12.50
2019-02-27T09:56:19.147Z,10.50
2019-02-27T09:57:19.138Z,13.00
2019-02-27T09:58:19.126Z,10.50
2019-02-27T09:59:19.689Z,12.50
2019-02-27T10:00:19.112Z,13.00
2019-02-27T10:01:19.101Z,19.60
2019-02-27T10:02:19.084Z,20.40
2019-02-27T10:03:21.206Z,22.30
2019-02-27T10:04:19.063Z,29.60
2019-02-27T10:05:19.057Z,40.00
2019-02-27T10:06:19.059Z,43.80
2019-02-27T10:07:19.039Z,53.30
2019-02-27T10:08:19.026Z,49.90
2019-02-27T10:09:19.008Z,58.50
2019-02-27T10:10:19.013Z,59.90
2019-02-27T10:11:21.570Z,62.50
2019-02-27T10:12:18.991Z,77.30
2019-02-27T10:13:18.967Z,64.10
2019-02-27T10:14:18.973Z,58.30
2019-02-27T10:15:18.945Z,63.80
2019-02-27T10:16:18.931Z,59.90
2019-02-27T10:17:18.922Z,60.30
2019-02-27T10:18:21.888Z,61.10
2019-02-27T10:19:18.934Z,56.60
2019-02-27T10:20:18.906Z,76.90
2019-02-27T10:21:18.878Z,60.40
2019-02-27T10:22:20.418Z,59.10
2019-02-27T10:23:18.862Z,60.90
2019-02-27T10:24:18.851Z,60.10
2019-02-27T10:25:18.840Z,59.80
2019-02-27T10:26:19.427Z,65.70
2019-02-27T10:27:18.818Z,66.90
2019-02-27T10:28:18.802Z,58.60
2019-02-27T10:29:19.073Z,70.80
2019-02-27T10:30:18.781Z,79.70
2019-02-27T10:31:18.771Z,69.50
2019-02-27T10:32:18.764Z,69.00
2019-02-27T10:33:18.755Z,65.70
2019-02-27T10:34:18.745Z,60.30
2019-02-27T10:35:18.741Z,58.50
2019-02-27T10:36:18.832Z,52.80
2019-02-27T10:37:19.021Z,55.10
2019-02-27T10:38:18.695Z,55.30
2019-02-27T10:39:18.698Z,63.30
2019-02-27T10:40:18.679Z,63.00
2019-02-27T10:41:18.667Z,56.30
2019-02-27T10:42:18.655Z,63.80
2019-02-27T10:43:18.653Z,59.70
2019-02-27T10:44:18.656Z,66.70
2019-02-27T10:45:18.672Z,58.40
2019-02-27T10:46:18.617Z,61.40
2019-02-27T10:47:18.623Z,60.30
2019-02-27T10:48:18.591Z,60.20
2019-02-27T10:49:21.652Z,100.00
2019-02-27T10:50:18.573Z,67.50
2019-02-27T10:51:18.559Z,60.50
2019-02-27T10:52:24.059Z,50.60
2019-02-27T10:53:19.554Z,59.90
2019-02-27T10:54:18.530Z,47.10
2019-02-27T10:55:18.517Z,48.20
2019-02-27T10:56:18.506Z,52.60
2019-02-27T10:57:18.496Z,63.50
2019-02-27T10:58:18.487Z,52.50
2019-02-27T10:59:19.633Z,47.10
2019-02-27T11:00:18.479Z,50.50
2019-02-27T11:01:18.452Z,46.20
2019-02-27T11:02:18.444Z,46.70
2019-02-27T11:03:18.432Z,50.30
2019-02-27T11:04:18.421Z,45.70
2019-02-27T11:05:18.470Z,51.60
2019-02-27T11:06:18.415Z,47.50
2019-02-27T11:07:18.386Z,46.20
2019-02-27T11:08:18.399Z,49.40
2019-02-27T11:09:18.364Z,41.20
2019-02-27T11:10:18.361Z,51.80
2019-02-27T11:11:18.346Z,46.90
2019-02-27T11:12:18.340Z,46.60
2019-02-27T11:13:18.322Z,43.90
2019-02-27T11:14:18.339Z,42.80
2019-02-27T11:15:18.308Z,42.80
2019-02-27T11:16:20.891Z,38.60
2019-02-27T11:17:18.282Z,40.40
2019-02-27T11:18:18.269Z,38.50
2019-02-27T11:19:18.267Z,36.60
2019-02-27T11:20:21.208Z,40.10
2019-02-27T11:21:18.239Z,37.50
2019-02-27T11:22:18.240Z,37.50
2019-02-27T11:23:18.223Z,38.40
2019-02-27T11:24:18.201Z,35.60
2019-02-27T11:25:22.240Z,35.00
2019-02-27T11:26:18.180Z,38.10
2019-02-27T11:27:18.175Z,37.50
2019-02-27T11:28:18.175Z,35.50
2019-02-27T11:29:18.149Z,34.10
2019-02-27T11:30:18.137Z,34.20
2019-02-27T11:31:18.128Z,38.60
2019-02-27T11:32:22.895Z,35.30
2019-02-27T11:33:25.562Z,33.40
2019-02-27T11:34:19.091Z,32.70
2019-02-27T11:35:18.081Z,34.50
2019-02-27T11:36:18.070Z,33.40
2019-02-27T11:37:18.065Z,32.80
2019-02-27T11:38:18.071Z,31.80
2019-02-27T11:39:18.048Z,32.40
2019-02-27T11:40:18.057Z,29.40
2019-02-27T11:41:18.068Z,32.60
2019-02-27T11:42:18.005Z,30.00
2019-02-27T11:43:18.003Z,28.40
2019-02-27T11:44:17.982Z,29.30
2019-02-27T11:45:17.994Z,26.70
2019-02-27T11:46:17.960Z,27.50
2019-02-27T11:47:17.951Z,28.30
2019-02-27T11:48:20.322Z,26.10
2019-02-27T11:49:17.947Z,27.40
2019-02-27T11:50:18.697Z,26.80
2019-02-27T11:51:20.174Z,25.30
2019-02-27T11:52:17.897Z,24.60
2019-02-27T11:53:17.884Z,25.50
2019-02-27T11:54:17.874Z,23.30
2019-02-27T11:55:17.865Z,26.30
2019-02-27T11:56:20.259Z,23.10
2019-02-27T11:57:17.841Z,27.00
2019-02-27T11:58:17.830Z,21.50
2019-02-27T11:59:17.818Z,22.30
2019-02-27T12:00:17.983Z,21.30
2019-02-27T12:01:21.812Z,21.80
2019-02-27T12:02:17.800Z,22.60
2019-02-27T12:03:17.848Z,21.20
2019-02-27T12:04:19.518Z,20.60
2019-02-27T12:05:17.754Z,20.40
2019-02-27T12:06:17.763Z,22.00
2019-02-27T12:07:17.984Z,20.20
2019-02-27T12:08:17.737Z,20.60
2019-02-27T12:09:17.709Z,21.40
2019-02-27T12:10:17.698Z,20.40
2019-02-27T12:11:17.687Z,20.90
2019-02-27T12:12:17.687Z,19.20
2019-02-27T12:13:17.697Z,20.40
2019-02-27T12:14:19.016Z,19.50
2019-02-27T12:15:17.643Z,20.00
2019-02-27T12:16:18.473Z,19.30
2019-02-27T12:17:17.623Z,19.80
2019-02-27T12:18:17.619Z,19.80
2019-02-27T12:19:17.608Z,20.70
2019-02-27T12:20:18.268Z,21.00
2019-02-27T12:21:17.576Z,18.00
2019-02-27T12:22:17.568Z,18.90
2019-02-27T12:23:17.561Z,18.40
2019-02-27T12:24:18.970Z,16.30
2019-02-27T12:25:17.546Z,19.10
2019-02-27T12:26:17.522Z,17.30
2019-02-27T12:27:42.695Z,17.50
2019-02-27T12:28:18.502Z,16.90
2019-02-27T12:29:17.491Z,19.10
2019-02-27T12:30:17.489Z,19.40
2019-02-27T12:31:17.470Z,17.40
2019-02-27T12:32:19.348Z,17.70
2019-02-27T12:33:17.458Z,17.90
2019-02-27T12:34:17.441Z,18.10
2019-02-27T12:35:17.435Z,17.40
2019-02-27T12:36:18.742Z,18.40
2019-02-27T12:37:27.699Z,17.50
2019-02-27T12:38:18.430Z,17.30
2019-02-27T12:39:18.698Z,35.20
2019-02-27T12:40:17.375Z,25.80
2019-02-27T12:41:17.378Z,25.20
2019-02-27T12:42:17.362Z,25.50
2019-02-27T12:43:18.465Z,27.10
2019-02-27T12:44:17.451Z,22.50
2019-02-27T12:45:17.423Z,20.70
2019-02-27T12:46:17.318Z,22.90
2019-02-27T12:47:17.304Z,19.90
2019-02-27T12:48:17.309Z,24.10
2019-02-27T12:49:20.041Z,20.80
2019-02-27T12:50:17.263Z,19.10
2019-02-27T12:51:17.252Z,20.50
2019-02-27T12:52:17.261Z,19.90
2019-02-27T12:53:20.715Z,18.30
2019-02-27T12:54:17.246Z,20.50